URWW

Volgograd International Airport

Volgograd, Russian Federation
TAF URWW 191400Z 1915/1924 26006G12MPS 0300 FZDZ FZFG OVC002 BKN020CB TEMPO 1915/1920 26007G13MPS 3100 -SHSNRA BR BKN007 BKN020CB FM192000 30005G12MPS 3100 -SHSNRA OVC003 BKN020CB TEMPO 1920/1924 25005G10MPS 0300 FZDZ FZFG OVC002 BKN020CB
Issued Valid From Valid To
Jan-19 @ 14:00 UTC
(4 hours ago)
Jan-19 @ 15:00 UTC
(3 hours ago)
Jan-20 @ 00:00 UTC
(in 6 hours)
Jan-19 @ 15:00 to Jan-19 @ 20:00
TAF URWW 191400Z 1915/1924 26006G12MPS 0300 FZDZ FZFG OVC002 BKN020CB
Wind Visibility Clouds Conditions
260° at 12 knots
 Gusting to 23 knots
306 meters
  • Overcast at 200' AGL
  • Broken at 2,000' AGL
  • Freezing
  • Drizzle
  • Freezing
  • Fog
Temporary Jan-19 @ 15:00 to Jan-19 @ 20:00
TEMPO 1915/1920 26007G13MPS 3100 -SHSNRA BR BKN007 BKN020CB
Wind Visibility Clouds Conditions
260° at 14 knots
 Gusting to 25 knots
3,106 meters
  • Broken at 700' AGL
  • Broken at 2,000' AGL
  • Light Snow
  • Light Rain
  • Mist
Temporary Jan-19 @ 20:00 to Jan-20 @ 00:00
TEMPO 1920/1924 25005G10MPS 0300 FZDZ FZFG OVC002 BKN020CB
Wind Visibility Clouds Conditions
250° at 10 knots
 Gusting to 19 knots
306 meters
  • Overcast at 200' AGL
  • Broken at 2,000' AGL
  • Freezing
  • Drizzle
  • Freezing
  • Fog
From Jan-19 @ 20:00 to Jan-20 @ 00:00
FM192000 30005G12MPS 3100 -SHSNRA OVC003 BKN020CB
Wind Visibility Clouds Conditions
300° at 10 knots
 Gusting to 23 knots
3,106 meters
  • Overcast at 300' AGL
  • Broken at 2,000' AGL
  • Light Snow
  • Light Rain
TAF URWW 191400Z 1915/1924 26006G12MPS 0300 FZDZ FZFG OVC002 BKN020CB TEMPO 1915/1920 26007G13MPS 3100 -SHSNRA BR BKN007 BKN020CB FM192000 30005G12MPS 3100 -SHSNRA OVC003 BKN020CB TEMPO 1920/1924 25005G10MPS 0300 FZDZ FZFG OVC002 BKN020CB
Issued Jan-19 @ 14:00 UTC
(4 hours ago)
Valid From Jan-19 @ 15:00 UTC
(3 hours ago)
Valid To Jan-20 @ 00:00 UTC
(in 6 hours)
Jan-19 @ 15:00 - Jan-19 @ 20:00
Wind Visibility
260° at 12 knots
 Gusting to 23 knots
306 meters
Clouds
  • Overcast at 200' AGL
  • Broken at 2,000' AGL
Conditions
  • Freezing
  • Drizzle
  • Freezing
  • Fog
Temporary Jan-19 @ 15:00 - Jan-19 @ 20:00
Wind Visibility
260° at 14 knots
 Gusting to 25 knots
3,106 meters
Clouds
  • Broken at 700' AGL
  • Broken at 2,000' AGL
Conditions
  • Light Snow
  • Light Rain
  • Mist
Temporary Jan-19 @ 20:00 - Jan-20 @ 00:00
Wind Visibility
250° at 10 knots
 Gusting to 19 knots
306 meters
Clouds
  • Overcast at 200' AGL
  • Broken at 2,000' AGL
Conditions
  • Freezing
  • Drizzle
  • Freezing
  • Fog
From Jan-19 @ 20:00 - Jan-20 @ 00:00
Wind Visibility
300° at 10 knots
 Gusting to 23 knots
3,106 meters
Clouds
  • Overcast at 300' AGL
  • Broken at 2,000' AGL
Conditions
  • Light Snow
  • Light Rain